Terminal Aerodrome Forecast
Issued by NWS Northern Indiana

Home | Current Version | Previous Version | Graphics & Text | Print | Product List | Glossary On
Versions: 1 2 3 4 5 6 7 8 9 10 11 12 13 14 15 16 17
398
FTUS43 KIWX 091121
TAFFWA
TAF
KFWA 091121Z 0912/1012 28014KT 6SM -SHSN OVC015
      TEMPO 0912/0916 3SM -SHSN OVC008
     FM091600 29015G22KT 6SM -SHSN OVC020
     FM100200 28014KT 4SM -SHSN OVC015
      TEMPO 1002/1006 2SM -SHSN=

USA.gov is the U.S. government's official web portal to all federal, state and local government web resources and services.